Time;durP1;ratioP1;P1;durP2;ratioP2;P2;SDS_P1;SDS_P2;PMS_P1;PMS_P2;Temp;Humidity;BMP_temperature;BMP_pressure;BME280_temperature;BME280_humidity;BME280_pressure;Samples;Min_cycle;Max_cycle;Signal;HPM_P1;HPM_P2
2022/01/29 00:01:56;;;;;;;;;21.67;12.33;;;;;10.45;63.93;103244.88;5102778;27;47807;-74
2022/01/29 00:04:21;;;;;;;;;16.00;12.00;;;;;10.45;64.18;103242.25;5104159;27;61591;-73
2022/01/29 00:06:47;;;;;;;;;13.00;13.00;;;;;10.44;64.09;103245.72;5089422;27;58741;-74
2022/01/29 00:09:15;;;;;;;;;18.00;13.50;;;;;10.42;63.82;103242.97;5092525;27;45613;-74
2022/01/29 00:11:43;;;;;;;;;14.33;12.67;;;;;10.38;63.96;103243.66;5097669;27;45489;-74
2022/01/29 00:14:09;;;;;;;;;16.25;14.00;;;;;10.43;64.12;103244.78;5097338;27;45457;-73
2022/01/29 00:16:34;;;;;;;;;18.25;14.00;;;;;10.40;64.09;103242.00;5097268;27;45333;-76
2022/01/29 00:18:59;;;;;;;;;13.33;12.00;;;;;10.38;63.82;103230.44;5096884;27;53971;-75
2022/01/29 00:21:25;;;;;;;;;16.00;13.00;;;;;10.39;64.03;103226.09;5099800;27;51452;-74
2022/01/29 00:23:50;;;;;;;;;17.00;15.00;;;;;10.38;64.07;103219.88;5106209;27;61168;-72
2022/01/29 00:26:20;;;;;;;;;16.67;12.67;;;;;10.39;64.30;103219.09;5096944;27;58089;-76
2022/01/29 00:28:45;;;;;;;;;14.00;13.00;;;;;10.37;64.07;103214.53;5100759;27;45275;-75
2022/01/29 00:31:11;;;;;;;;;13.33;13.33;;;;;10.28;64.35;103209.72;5100548;27;45616;-74
2022/01/29 00:33:38;;;;;;;;;20.33;14.00;;;;;10.35;64.36;103214.47;5100480;27;46339;-74
2022/01/29 00:36:04;;;;;;;;;25.00;14.75;;;;;10.37;64.40;103215.44;5100441;27;45304;-76
2022/01/29 00:38:29;;;;;;;;;19.75;15.00;;;;;10.34;64.22;103214.41;5100435;27;45378;-76
2022/01/29 00:40:54;;;;;;;;;17.75;14.00;;;;;10.30;64.38;103205.41;5100254;27;46749;-75
2022/01/29 00:43:20;;;;;;;;;15.00;12.00;;;;;10.28;64.36;103198.22;5100067;27;59722;-76
2022/01/29 00:45:45;;;;;;;;;13.33;12.33;;;;;10.25;64.39;103199.00;5099653;27;59567;-73
2022/01/29 00:48:10;;;;;;;;;14.50;13.75;;;;;10.23;64.44;103198.91;5099794;27;55852;-75
2022/01/29 00:50:36;;;;;;;;;14.00;12.00;;;;;10.22;64.73;103202.31;5099687;27;50473;-74
2022/01/29 00:53:01;;;;;;;;;15.75;14.00;;;;;10.22;64.69;103201.41;5101686;27;46496;-74
2022/01/29 00:55:27;;;;;;;;;12.00;10.33;;;;;10.22;64.54;103204.97;5099984;27;56204;-77
2022/01/29 00:57:52;;;;;;;;;14.33;12.67;;;;;10.23;64.88;103190.06;5113143;27;51929;-74
2022/01/29 01:00:17;;;;;;;;;15.33;14.00;;;;;10.23;65.09;103193.63;5099751;27;49110;-76
2022/01/29 01:02:43;;;;;;;;;17.33;16.00;;;;;10.25;64.80;103200.72;5081931;27;45903;-75
2022/01/29 01:05:09;;;;;;;;;18.00;13.00;;;;;10.23;65.14;103188.34;5099590;27;57410;-74
2022/01/29 01:07:34;;;;;;;;;19.50;13.50;;;;;10.19;65.29;103186.34;5087453;27;45295;-73
2022/01/29 01:09:59;;;;;;;;;13.25;11.00;;;;;10.18;65.36;103181.00;5100358;27;45359;-72
2022/01/29 01:12:25;;;;;;;;;17.00;13.00;;;;;10.15;65.83;103180.84;5099455;27;58133;-73
2022/01/29 01:14:50;;;;;;;;;14.00;13.00;;;;;10.10;65.76;103179.69;5100311;27;59406;-74
2022/01/29 01:17:16;;;;;;;;;18.67;14.00;;;;;10.13;65.90;103171.94;5112518;27;45430;-74
2022/01/29 01:19:41;;;;;;;;;13.00;12.25;;;;;10.13;66.20;103178.13;5100088;27;45255;-75
2022/01/29 01:22:06;;;;;;;;;16.33;13.00;;;;;10.14;66.06;103174.66;5099863;27;46571;-74
2022/01/29 01:24:32;;;;;;;;;12.33;12.00;;;;;10.10;65.89;103164.75;5099729;27;45260;-74
2022/01/29 01:26:57;;;;;;;;;14.00;13.33;;;;;10.12;66.12;103171.03;5099961;27;45315;-73
2022/01/29 01:29:23;;;;;;;;;13.00;12.00;;;;;10.09;66.42;103176.16;5099635;27;45292;-74
2022/01/29 01:31:48;;;;;;;;;20.25;15.25;;;;;10.07;66.65;103171.63;5099538;27;47284;-74
2022/01/29 01:34:15;;;;;;;;;17.00;14.00;;;;;10.03;66.54;103156.47;5112349;27;45364;-74
2022/01/29 01:36:52;;;;;;;;;16.33;12.33;;;;;10.06;67.01;103162.78;5081548;27;45369;-75
2022/01/29 01:39:22;;;;;;;;;14.33;13.33;;;;;10.06;67.55;103162.78;5099633;27;45224;-74
2022/01/29 01:42:03;;;;;;;;;17.50;13.75;;;;;10.07;67.09;103172.53;5099383;27;46492;-74
2022/01/29 01:44:39;;;;;;;;;18.75;16.00;;;;;10.08;67.02;103174.34;5099369;27;45579;-74
2022/01/29 01:47:05;;;;;;;;;13.25;13.25;;;;;10.09;67.19;103165.59;5082230;27;45252;-74
2022/01/29 01:49:30;;;;;;;;;14.33;13.67;;;;;10.07;67.37;103159.34;5098954;27;45620;-74
2022/01/29 01:51:55;;;;;;;;;17.33;12.33;;;;;10.05;67.64;103152.16;5098871;27;53966;-74
2022/01/29 01:54:21;;;;;;;;;15.00;13.75;;;;;10.05;67.69;103158.34;5080981;27;45251;-73
2022/01/29 01:56:46;;;;;;;;;19.25;14.00;;;;;10.09;67.96;103157.69;5098840;27;57687;-74
2022/01/29 01:59:12;;;;;;;;;18.75;13.25;;;;;10.07;67.64;103156.72;5098707;27;52682;-74
2022/01/29 02:01:37;;;;;;;;;13.25;12.50;;;;;10.06;68.08;103152.22;5080571;27;55133;-74
2022/01/29 02:04:03;;;;;;;;;18.25;13.25;;;;;10.02;68.48;103144.09;5099163;27;45383;-72
2022/01/29 02:06:28;;;;;;;;;17.00;13.50;;;;;9.99;68.24;103139.56;5080823;27;45323;-74
2022/01/29 02:08:59;;;;;;;;;15.00;14.75;;;;;10.03;68.32;103154.72;5092751;27;45356;-74
2022/01/29 02:11:24;;;;;;;;;18.75;13.25;;;;;10.02;68.30;103144.09;5098854;27;47542;-74
2022/01/29 02:13:50;;;;;;;;;18.75;14.75;;;;;10.01;68.17;103140.53;5098894;27;45149;-72
2022/01/29 02:16:15;;;;;;;;;11.75;10.25;;;;;10.03;68.19;103145.91;5099164;27;45517;-74
2022/01/29 02:18:41;;;;;;;;;21.75;13.50;;;;;10.03;68.68;103138.00;5098826;27;49628;-75
2022/01/29 02:21:06;;;;;;;;;18.75;14.00;;;;;10.00;68.30;103149.28;5098300;27;56838;-74
2022/01/29 02:23:33;;;;;;;;;13.75;13.00;;;;;9.94;68.20;103136.69;5110982;27;59920;-74
2022/01/29 02:25:59;;;;;;;;;17.00;13.67;;;;;9.91;68.98;103133.91;5081158;27;45253;-75
2022/01/29 02:28:24;;;;;;;;;19.25;16.25;;;;;9.93;68.58;103128.69;5080682;27;45422;-73
2022/01/29 02:31:00;;;;;;;;;16.50;12.50;;;;;9.88;69.08;103114.38;5098368;27;47584;-74
2022/01/29 02:33:25;;;;;;;;;14.75;12.50;;;;;9.92;69.17;103114.59;5098717;27;45334;-74
2022/01/29 02:35:52;;;;;;;;;17.75;15.50;;;;;9.88;68.79;103107.34;5110206;27;45497;-75
2022/01/29 02:38:20;;;;;;;;;14.00;13.25;;;;;9.88;68.81;103110.00;5098831;27;45358;-74
2022/01/29 02:40:50;;;;;;;;;13.67;12.67;;;;;9.89;69.17;103097.69;5098151;27;46751;-75
2022/01/29 02:43:20;;;;;;;;;17.75;16.75;;;;;9.89;69.44;103089.78;5098481;27;45543;-74
2022/01/29 02:45:46;;;;;;;;;13.67;10.00;;;;;9.85;69.88;103079.91;5098497;27;45504;-76
2022/01/29 02:48:11;;;;;;;;;15.67;9.67;;;;;9.89;69.31;103089.78;5098324;27;45419;-74
2022/01/29 02:50:37;;;;;;;;;9.00;9.00;;;;;9.85;69.49;103082.53;5096507;27;62118;-75
2022/01/29 02:53:02;;;;;;;;;17.00;14.50;;;;;9.87;69.57;103081.81;5098287;27;45409;-75
2022/01/29 02:55:29;;;;;;;;;14.33;11.67;;;;;9.86;70.34;103080.00;5098333;27;45314;-74
2022/01/29 02:57:55;;;;;;;;;12.75;11.75;;;;;9.80;70.49;103073.47;5098518;27;45327;-74
2022/01/29 03:00:20;;;;;;;;;15.67;13.33;;;;;9.83;70.16;103066.63;5111194;27;46413;-75
2022/01/29 03:02:45;;;;;;;;;14.00;10.50;;;;;9.84;70.12;103057.88;5098285;27;45386;-76
2022/01/29 03:05:11;;;;;;;;;15.00;12.25;;;;;9.85;69.96;103064.06;5098038;27;50612;-74
2022/01/29 03:07:38;;;;;;;;;12.25;11.50;;;;;9.84;70.00;103071.06;5088839;27;45450;-73
2022/01/29 03:10:04;;;;;;;;;13.00;13.00;;;;;9.83;70.03;103055.19;5098204;27;46736;-74
2022/01/29 03:12:29;;;;;;;;;14.25;12.75;;;;;9.88;70.28;103062.50;5098086;27;45271;-73
2022/01/29 03:14:55;;;;;;;;;17.00;10.50;;;;;9.88;70.20;103058.97;5098202;27;45396;-73
2022/01/29 03:17:20;;;;;;;;;12.67;8.67;;;;;9.87;70.27;103050.13;5097547;27;53226;-73
2022/01/29 03:19:45;;;;;;;;;12.00;9.00;;;;;9.86;70.95;103055.34;5097419;27;59401;-73
2022/01/29 03:22:11;;;;;;;;;11.67;9.67;;;;;9.88;70.41;103049.31;5110849;27;60992;-74
2022/01/29 03:24:36;;;;;;;;;13.00;9.00;;;;;9.89;70.47;103045.81;5097648;27;54153;-73
2022/01/29 03:27:02;;;;;;;;;12.67;9.67;;;;;9.90;71.21;103052.00;5097973;27;45361;-74
2022/01/29 03:29:28;;;;;;;;;12.67;8.67;;;;;9.90;70.58;103047.63;5108787;27;47278;-74
2022/01/29 03:31:53;;;;;;;;;11.67;9.67;;;;;9.91;70.48;103052.09;5099076;27;56829;-75
2022/01/29 03:34:19;;;;;;;;;13.50;8.50;;;;;9.92;70.75;103053.91;5097432;27;53595;-74
2022/01/29 03:36:44;;;;;;;;;18.00;11.00;;;;;9.93;70.56;103049.53;5079200;27;53740;-75
2022/01/29 03:39:09;;;;;;;;;12.00;10.33;;;;;9.92;70.64;103051.28;5097645;27;45414;-74
2022/01/29 03:41:36;;;;;;;;;14.67;12.00;;;;;9.92;70.61;103050.38;5097777;27;45263;-74
2022/01/29 03:44:03;;;;;;;;;11.33;9.33;;;;;9.92;70.88;103060.91;5097618;27;45529;-73
2022/01/29 03:46:28;;;;;;;;;12.67;11.00;;;;;9.95;71.62;103051.41;5097670;27;45207;-75
2022/01/29 03:48:53;;;;;;;;;13.50;10.00;;;;;9.98;70.97;103051.56;5097445;27;45583;-74
2022/01/29 03:51:19;;;;;;;;;9.33;9.33;;;;;9.98;70.77;103050.66;5096777;27;61257;-73
2022/01/29 03:53:46;;;;;;;;;14.50;13.00;;;;;9.96;70.84;103042.69;5096868;27;52911;-74
2022/01/29 03:56:11;;;;;;;;;14.67;11.67;;;;;9.95;70.84;103043.47;5097610;27;45503;-74
2022/01/29 03:58:37;;;;;;;;;16.00;13.75;;;;;9.92;70.85;103046.00;5097174;27;46612;-74
2022/01/29 04:01:02;;;;;;;;;12.33;12.00;;;;;9.91;71.04;103038.91;5097145;27;60215;-74
2022/01/29 04:03:27;;;;;;;;;15.67;14.67;;;;;9.93;70.92;103046.91;5113790;27;54217;-74
2022/01/29 04:05:53;;;;;;;;;17.00;12.00;;;;;9.93;71.09;103049.53;5112055;27;51790;-74
2022/01/29 04:08:18;;;;;;;;;12.67;11.67;;;;;9.92;71.05;103048.63;5100496;27;55685;-74
2022/01/29 04:10:44;;;;;;;;;15.33;13.00;;;;;9.92;71.31;103051.28;5101012;27;45418;-74
2022/01/29 04:13:12;;;;;;;;;11.67;11.67;;;;;9.94;71.43;103044.31;5114135;27;45285;-74
2022/01/29 04:15:37;;;;;;;;;18.67;14.67;;;;;9.94;71.27;103044.31;5101232;27;45325;-74
2022/01/29 04:18:03;;;;;;;;;12.33;10.00;;;;;9.95;71.37;103043.47;5100035;27;62760;-74
2022/01/29 04:20:28;;;;;;;;;7.00;7.00;;;;;9.96;71.49;103047.97;5100797;27;45308;-74
2022/01/29 04:22:54;;;;;;;;;11.00;10.33;;;;;9.98;71.23;103045.38;5100540;27;56548;-76
2022/01/29 04:25:19;;;;;;;;;13.25;12.25;;;;;10.01;71.27;103041.97;5100314;27;53757;-74
2022/01/29 04:27:47;;;;;;;;;17.00;11.33;;;;;10.05;71.29;103039.56;5099917;27;59912;-74
2022/01/29 04:30:27;;;;;;;;;15.67;9.67;;;;;10.06;71.04;103038.72;5100595;27;45319;-74
2022/01/29 04:35:19;;;;;;;;;12.00;10.00;;;;;10.14;71.20;103045.28;5100817;27;45624;-73
2022/01/29 04:37:44;;;;;;;;;12.00;10.33;;;;;10.14;71.22;103047.03;5100332;27;46298;-74
2022/01/29 04:40:10;;;;;;;;;12.67;10.00;;;;;10.09;71.08;103038.00;5109695;27;62870;-76
2022/01/29 04:42:36;;;;;;;;;15.25;14.00;;;;;10.15;71.54;103036.53;5103361;27;45465;-74
2022/01/29 04:45:01;;;;;;;;;12.00;10.00;;;;;10.17;71.47;103037.53;5100950;27;45208;-76
2022/01/29 04:47:27;;;;;;;;;14.33;11.33;;;;;10.18;71.27;103038.44;5081802;27;47455;-73
2022/01/29 04:49:52;;;;;;;;;13.00;11.33;;;;;10.23;71.32;103045.78;5078270;27;45457;-76
2022/01/29 04:52:18;;;;;;;;;12.00;10.00;;;;;10.26;71.40;103039.72;5100383;27;45929;-73
2022/01/29 04:54:43;;;;;;;;;2.50;2.50;;;;;10.29;71.42;103037.25;5100033;27;51521;-74
2022/01/29 04:57:08;;;;;;;;;12.00;10.67;;;;;10.28;71.46;103032.81;5099627;27;64395;-74
2022/01/29 04:59:34;;;;;;;;;14.00;12.00;;;;;10.28;71.56;103026.59;5100759;27;45386;-74
2022/01/29 05:01:59;;;;;;;;;13.00;9.67;;;;;10.29;71.66;103033.72;5112291;27;55269;-76
2022/01/29 05:04:25;;;;;;;;;12.67;11.67;;;;;10.27;71.64;103030.97;5113256;27;45502;-73
2022/01/29 05:06:50;;;;;;;;;9.67;9.67;;;;;10.27;72.04;103038.88;5099346;27;46339;-74
2022/01/29 05:09:15;;;;;;;;;12.00;12.00;;;;;10.28;71.64;103038.09;5099536;27;55138;-75
2022/01/29 05:11:44;;;;;;;;;14.67;10.67;;;;;10.29;72.21;103049.56;5099969;27;45480;-74
2022/01/29 05:14:18;;;;;;;;;11.33;9.00;;;;;10.28;71.54;103048.66;5082365;27;45477;-74
2022/01/29 05:17:18;;;;;;;;;12.67;8.67;;;;;10.30;71.61;103030.22;5099755;27;47297;-74
2022/01/29 05:26:52;;;;;;;;;13.33;13.00;;;;;10.32;71.79;103037.38;5100039;27;45310;-74
2022/01/29 05:27:48;;;;;;;;;13.67;10.33;;;;;10.31;71.84;103030.28;5099733;27;45795;-74
2022/01/29 05:30:13;;;;;;;;;10.00;10.00;;;;;10.32;72.22;103036.47;5099191;27;57054;-74
2022/01/29 05:32:39;;;;;;;;;13.00;9.00;;;;;10.32;71.78;103031.19;5099223;27;57403;-74
2022/01/29 05:35:04;;;;;;;;;11.67;11.67;;;;;10.29;71.81;103026.69;5100101;27;45338;-74
2022/01/29 05:37:30;;;;;;;;;13.33;9.00;;;;;10.30;71.99;103027.59;5098953;27;46393;-73
2022/01/29 05:39:55;;;;;;;;;11.50;10.00;;;;;10.31;72.02;103029.38;5099373;27;45378;-75
2022/01/29 05:42:20;;;;;;;;;12.67;11.33;;;;;10.31;71.96;103019.72;5099291;27;52715;-74
2022/01/29 05:44:46;;;;;;;;;8.50;8.50;;;;;10.28;72.28;103016.97;5112211;27;54534;-74
2022/01/29 05:47:11;;;;;;;;;9.25;9.00;;;;;10.27;72.33;103015.13;5098684;27;61761;-74
2022/01/29 05:49:37;;;;;;;;;9.75;8.25;;;;;10.28;72.13;103016.03;5098752;27;53956;-74
2022/01/29 05:52:02;;;;;;;;;13.33;10.00;;;;;10.29;72.24;103021.41;5098633;27;56813;-74
2022/01/29 05:54:28;;;;;;;;;13.75;11.00;;;;;10.28;72.43;103011.69;5099600;27;45583;-76
2022/01/29 05:56:53;;;;;;;;;10.67;9.33;;;;;10.29;72.52;103015.22;5099129;27;47658;-76
2022/01/29 05:59:18;;;;;;;;;9.67;9.00;;;;;10.28;72.20;103014.31;5099076;27;45327;-75
2022/01/29 06:01:44;;;;;;;;;10.33;9.00;;;;;10.29;72.54;103015.22;5098695;27;55491;-74
2022/01/29 06:04:09;;;;;;;;;12.33;12.33;;;;;10.31;72.55;103025.00;5080677;27;55266;-74
2022/01/29 06:06:34;;;;;;;;;10.33;9.67;;;;;10.29;72.64;103013.47;5096532;27;57010;-76
2022/01/29 06:09:04;;;;;;;;;11.00;9.67;;;;;10.29;72.97;103015.22;5099128;27;45476;-76
2022/01/29 06:11:30;;;;;;;;;16.00;10.67;;;;;10.29;72.54;103002.03;5098931;27;45625;-74
2022/01/29 06:13:55;;;;;;;;;10.00;8.75;;;;;10.32;72.64;103013.59;5099604;27;45442;-76
2022/01/29 06:16:20;;;;;;;;;13.33;11.33;;;;;10.26;72.55;103000.13;5098115;27;62672;-75
2022/01/29 06:18:46;;;;;;;;;11.00;9.00;;;;;10.31;72.64;103003.88;5099004;27;45416;-74
2022/01/29 06:21:13;;;;;;;;;10.25;10.25;;;;;10.34;72.62;103009.31;5098823;27;45881;-74
2022/01/29 06:23:39;;;;;;;;;16.00;11.33;;;;;10.36;72.59;103019.94;5080476;27;45467;-76
2022/01/29 06:26:06;;;;;;;;;10.67;10.67;;;;;10.33;72.59;103006.59;5098562;27;46259;-75
2022/01/29 06:28:32;;;;;;;;;13.33;10.67;;;;;10.38;72.50;103011.25;5098774;27;45220;-75
2022/01/29 06:30:57;;;;;;;;;13.00;9.67;;;;;10.39;72.33;103013.09;5098918;27;45819;-73
2022/01/29 06:33:22;;;;;;;;;9.00;9.00;;;;;10.38;72.48;102999.78;5098843;27;45338;-74
2022/01/29 06:35:48;;;;;;;;;12.33;10.67;;;;;10.41;72.42;103021.06;5097430;27;64790;-73
2022/01/29 06:38:14;;;;;;;;;10.33;6.67;;;;;10.36;72.44;103005.00;5107336;27;45287;-74
2022/01/29 06:40:40;;;;;;;;;16.00;12.00;;;;;10.37;72.80;102997.97;5091342;27;45389;-76
2022/01/29 06:43:05;;;;;;;;;12.67;8.00;;;;;10.42;72.54;103012.31;5100393;27;45522;-75
2022/01/29 06:45:34;;;;;;;;;10.00;7.33;;;;;10.41;72.66;103007.88;5109838;27;46418;-75
2022/01/29 06:48:00;;;;;;;;;10.00;8.00;;;;;10.39;73.01;103004.25;5091243;27;45463;-75
2022/01/29 06:50:25;;;;;;;;;8.33;8.00;;;;;10.42;72.66;103002.66;5076613;27;45381;-75
2022/01/29 06:52:51;;;;;;;;;11.33;8.00;;;;;10.43;72.80;103003.53;5094791;27;45604;-74
2022/01/29 06:55:16;;;;;;;;;9.67;8.00;;;;;10.45;72.96;103004.53;5097444;27;61265;-76
2022/01/29 06:57:42;;;;;;;;;10.33;7.00;;;;;10.47;72.89;103005.50;5098292;27;45314;-74
2022/01/29 07:00:08;;;;;;;;;13.50;11.00;;;;;10.45;72.65;103008.09;5097645;27;47125;-74
2022/01/29 07:02:34;;;;;;;;;9.33;8.00;;;;;10.44;72.96;103014.22;5098583;27;45567;-77
2022/01/29 07:04:59;;;;;;;;;1.00;0.00;;;;;10.44;73.13;103008.03;5079447;27;46906;-74
2022/01/29 07:07:26;;;;;;;;;9.67;8.00;;;;;10.44;72.73;103003.63;5085188;27;45355;-74
2022/01/29 07:09:51;;;;;;;;;10.33;7.33;;;;;10.46;72.87;103011.63;5102925;27;45487;-74
2022/01/29 07:12:17;;;;;;;;;13.00;6.67;;;;;10.45;73.07;103005.44;5097920;27;45346;-74
2022/01/29 07:14:42;;;;;;;;;7.33;7.00;;;;;10.48;73.19;103002.03;5097278;27;57864;-74
2022/01/29 07:17:11;;;;;;;;;9.33;8.67;;;;;10.48;73.19;102995.00;5112010;27;57246;-77
2022/01/29 07:19:37;;;;;;;;;8.33;6.00;;;;;10.51;72.89;102996.91;5102455;27;45466;-74
2022/01/29 07:22:03;;;;;;;;;9.33;8.00;;;;;10.54;73.08;102998.75;5098215;27;45497;-75
2022/01/29 07:24:29;;;;;;;;;9.00;8.00;;;;;10.55;72.73;102996.22;5097446;27;47501;-78
2022/01/29 07:26:54;;;;;;;;;8.00;7.00;;;;;10.53;72.59;102986.38;5079515;27;45599;-75
2022/01/29 07:29:19;;;;;;;;;8.00;7.00;;;;;10.60;72.82;102993.75;5110518;27;57549;-74
2022/01/29 07:31:45;;;;;;;;;9.33;7.00;;;;;10.61;72.88;102993.84;5110674;27;45378;-77
2022/01/29 07:34:10;;;;;;;;;8.00;6.33;;;;;10.62;72.72;102994.75;5097611;27;62423;-73
2022/01/29 07:36:35;;;;;;;;;6.00;4.33;;;;;10.61;72.86;102996.47;5078027;27;61077;-76
2022/01/29 07:39:01;;;;;;;;;6.33;5.33;;;;;10.64;72.83;102996.59;5096266;27;55384;-75
2022/01/29 07:41:26;;;;;;;;;7.00;5.33;;;;;10.64;73.11;103006.28;5096976;27;47501;-74
2022/01/29 07:43:52;;;;;;;;;7.00;7.00;;;;;10.64;72.89;103001.00;5096133;27;62488;-76
2022/01/29 07:46:17;;;;;;;;;3.33;2.00;;;;;10.64;72.97;103006.28;5088776;27;57815;-74
2022/01/29 07:48:42;;;;;;;;;4.00;4.00;;;;;10.67;72.73;103009.06;5096687;27;45384;-75
2022/01/29 07:51:08;;;;;;;;;7.67;5.00;;;;;10.68;73.38;103003.84;5096129;27;45546;-76
2022/01/29 07:53:33;;;;;;;;;7.00;4.33;;;;;10.69;73.64;103000.34;5094132;27;55286;-75
2022/01/29 07:55:59;;;;;;;;;6.67;6.33;;;;;10.72;73.16;102991.69;5095831;27;45218;-77
2022/01/29 07:58:24;;;;;;;;;7.00;5.33;;;;;10.75;72.81;102998.00;5096743;27;45422;-74
2022/01/29 08:00:49;;;;;;;;;3.00;3.00;;;;;10.79;73.07;103004.31;5096013;27;55356;-75
2022/01/29 08:03:15;;;;;;;;;3.00;3.00;;;;;10.81;72.73;102986.78;5094666;27;58593;-75
2022/01/29 08:05:40;;;;;;;;;3.00;3.00;;;;;10.83;72.73;102990.41;5094132;27;61273;-74
2022/01/29 08:08:05;;;;;;;;;5.67;4.00;;;;;10.81;73.08;102992.06;5094577;27;54375;-78
2022/01/29 08:10:31;;;;;;;;;3.33;3.00;;;;;10.79;72.99;102985.81;5059166;27;53999;-76
2022/01/29 08:12:56;;;;;;;;;5.00;4.00;;;;;10.84;73.13;102986.94;5096502;27;46209;-75
2022/01/29 08:15:22;;;;;;;;;9.33;4.67;;;;;10.88;73.24;102983.59;5095594;27;45311;-74
2022/01/29 08:17:47;;;;;;;;;7.00;5.00;;;;;10.89;72.92;102980.13;5098161;27;45625;-75
2022/01/29 08:20:13;;;;;;;;;7.00;5.00;;;;;10.91;72.88;102981.06;5096371;27;45498;-77
2022/01/29 08:22:38;;;;;;;;;3.00;3.00;;;;;10.92;73.11;102987.25;5094597;27;46055;-74
2022/01/29 08:25:05;;;;;;;;;4.00;4.00;;;;;10.83;73.16;102979.84;5078038;27;45348;-75
2022/01/29 08:27:30;;;;;;;;;7.00;4.67;;;;;10.91;73.21;102989.00;5093570;27;45363;-74
2022/01/29 08:29:55;;;;;;;;;4.33;3.00;;;;;10.93;73.24;102994.38;5095069;27;45358;-75
2022/01/29 08:32:21;;;;;;;;;4.00;4.00;;;;;10.94;73.31;102991.78;5095396;27;63586;-74
2022/01/29 08:34:47;;;;;;;;;3.00;3.00;;;;;10.95;73.51;102976.84;5093921;27;60660;-76
2022/01/29 08:37:12;;;;;;;;;7.00;4.33;;;;;10.93;73.35;102984.72;5096518;27;45318;-75
2022/01/29 08:52:41;;;;;;;;;3.33;3.33;;;;;10.88;75.22;102985.34;5176715;22;46515;-76
2022/01/29 08:55:08;;;;;;;;;4.00;4.00;;;;;10.80;75.22;102979.69;5077945;27;45573;-76
2022/01/29 08:57:33;;;;;;;;;4.00;4.00;;;;;10.84;74.76;102988.69;5075957;27;45598;-75
2022/01/29 09:05:46;;;;;;;;;3.33;3.33;;;;;10.70;75.39;102953.69;5114946;27;45497;-73
2022/01/29 09:08:12;;;;;;;;;3.00;3.00;;;;;10.79;75.23;102977.91;5114972;27;45385;-74
2022/01/29 09:10:38;;;;;;;;;4.00;3.00;;;;;10.79;75.42;102971.72;5103071;27;45488;-73
2022/01/29 09:13:03;;;;;;;;;3.00;3.00;;;;;10.75;75.21;102960.09;5092152;27;45421;-73
2022/01/29 09:15:29;;;;;;;;;4.33;3.67;;;;;10.80;75.54;102969.13;5118140;27;45442;-73
2022/01/29 09:17:54;;;;;;;;;4.67;4.00;;;;;10.84;75.59;102972.81;5119629;27;58677;-73
2022/01/29 09:20:20;;;;;;;;;4.33;4.00;;;;;10.88;75.63;102975.69;5112780;27;55406;-73
2022/01/29 09:22:45;;;;;;;;;4.00;4.00;;;;;10.87;75.42;102973.88;5116017;27;45957;-73
2022/01/29 09:25:10;;;;;;;;;3.33;3.33;;;;;10.89;75.45;102971.28;5112411;27;45362;-72
2022/01/29 09:27:36;;;;;;;;;7.00;3.00;;;;;10.89;75.67;102968.66;5088949;27;45417;-72
2022/01/29 09:32:36;;;;;;;;;5.67;2.00;;;;;11.07;74.79;102957.97;5140838;22;74168;-80
2022/01/29 09:35:02;;;;;;;;;2.67;2.67;;;;;11.20;74.44;102968.22;5061665;27;48020;-81
2022/01/29 09:37:27;;;;;;;;;3.00;3.00;;;;;11.19;73.98;102951.47;5045434;27;45447;-79
2022/01/29 09:39:53;;;;;;;;;3.00;3.00;;;;;11.30;74.22;102956.31;5058075;27;50814;-79
2022/01/29 09:42:18;;;;;;;;;4.00;4.00;;;;;11.31;73.77;102958.13;5062116;27;47665;-78
2022/01/29 09:44:45;;;;;;;;;4.67;4.00;;;;;11.23;73.75;102941.91;5061601;27;50563;-80
2022/01/29 09:47:11;;;;;;;;;8.67;7.67;;;;;11.36;73.77;102962.75;5046878;27;45345;-79
2022/01/29 09:49:36;;;;;;;;;3.00;3.00;;;;;11.39;73.70;102956.66;5062736;27;45528;-87
2022/01/29 09:52:02;;;;;;;;;4.33;3.67;;;;;11.43;73.42;102970.09;5048042;27;47361;-81
2022/01/29 09:54:27;;;;;;;;;3.67;2.33;;;;;11.32;73.52;102955.53;5062767;27;45545;-79
2022/01/29 09:56:53;;;;;;;;;4.67;4.00;;;;;11.38;73.40;102965.44;5060926;27;46733;-78
2022/01/29 09:59:18;;;;;;;;;5.00;3.33;;;;;11.39;73.54;102967.25;5062857;27;45517;-82
2022/01/29 10:01:44;;;;;;;;;7.00;4.67;;;;;11.40;73.80;102975.28;5045194;27;60654;-82
2022/01/29 10:04:09;;;;;;;;;3.67;3.67;;;;;11.41;73.63;102978.81;5060156;27;60193;-82
2022/01/29 10:06:42;;;;;;;;;6.00;3.33;;;;;11.44;73.99;102982.47;5078034;27;45483;-79
2022/01/29 10:09:11;;;;;;;;;4.00;3.33;;;;;11.43;73.93;102983.31;5046230;27;45410;-79
2022/01/29 10:11:36;;;;;;;;;7.00;3.00;;;;;11.48;73.71;102980.88;5055415;27;45908;-79
2022/01/29 10:14:03;;;;;;;;;6.00;4.00;;;;;11.46;73.67;102970.25;5058539;28;45395;-79
2022/01/29 10:16:30;;;;;;;;;3.00;2.67;;;;;11.50;73.83;102977.47;5065074;27;45508;-81
2022/01/29 10:19:12;;;;;;;;;2.00;2.00;;;;;11.58;73.80;102968.94;5076194;27;45543;-80
2022/01/29 10:21:48;;;;;;;;;3.33;3.00;;;;;11.67;73.44;102977.25;5055501;27;46674;-80
2022/01/29 10:24:19;;;;;;;;;6.33;3.00;;;;;11.71;73.52;102969.47;5046893;27;46078;-80
2022/01/29 10:26:46;;;;;;;;;4.00;4.00;;;;;11.69;73.35;102962.34;5058536;27;45753;-81
2022/01/29 10:29:16;;;;;;;;;5.00;3.67;;;;;11.85;73.19;102975.38;5061946;27;45631;-81
2022/01/29 10:31:43;;;;;;;;;5.00;4.00;;;;;11.89;73.08;102973.75;5037117;28;47588;-79
2022/01/29 10:34:25;;;;;;;;;4.00;4.00;;;;;11.97;72.96;102967.00;5041223;28;46110;-80
2022/01/29 10:37:19;;;;;;;;;2.00;2.00;;;;;12.04;72.83;102969.97;5056966;28;45643;-81
2022/01/29 10:39:55;;;;;;;;;4.00;2.67;;;;;12.09;72.89;102967.53;5075773;28;45599;-79
2022/01/29 10:42:25;;;;;;;;;2.67;2.67;;;;;12.12;72.62;102975.56;5050420;28;46879;-81
2022/01/29 10:44:52;;;;;;;;;3.00;3.00;;;;;12.05;72.45;102958.53;5067494;28;45560;-80
2022/01/29 10:47:17;;;;;;;;;2.00;1.00;;;;;12.10;72.46;102961.38;5055171;28;46252;-79
2022/01/29 10:49:58;;;;;;;;;3.00;3.00;;;;;12.12;72.27;102962.31;5037927;28;47861;-80
2022/01/29 10:52:34;;;;;;;;;4.00;2.00;;;;;12.11;72.55;102972.88;5042749;28;47949;-79
2022/01/29 10:55:01;;;;;;;;;3.00;3.00;;;;;12.07;72.34;102983.31;5075394;28;45456;-80
2022/01/29 10:57:46;;;;;;;;;2.67;2.67;;;;;12.11;72.28;102984.34;5037471;28;46603;-79
2022/01/29 11:00:25;;;;;;;;;4.00;2.00;;;;;12.10;72.48;102982.56;5074651;28;45505;-81
2022/01/29 11:02:51;;;;;;;;;3.00;3.00;;;;;12.08;72.41;102976.28;5057623;28;47738;-82
2022/01/29 11:05:17;;;;;;;;;2.00;2.00;;;;;12.02;72.43;102965.44;5040088;28;45368;-80
2022/01/29 11:07:46;;;;;;;;;3.00;3.00;;;;;12.07;72.44;102963.88;5041856;28;45506;-82
2022/01/29 11:10:11;;;;;;;;;3.67;2.33;;;;;12.09;72.46;102978.09;5073665;28;45465;-82
2022/01/29 11:12:37;;;;;;;;;3.67;3.67;;;;;12.10;72.71;102968.41;5075010;28;46733;-81
2022/01/29 11:15:02;;;;;;;;;3.67;1.00;;;;;12.12;72.46;102978.22;5038554;28;45375;-82
2022/01/29 11:17:29;;;;;;;;;4.00;3.00;;;;;12.12;72.53;102982.59;5076227;28;45457;-82
2022/01/29 11:19:54;;;;;;;;;2.00;2.00;;;;;12.07;72.58;102975.38;5074487;28;45259;-79
2022/01/29 11:22:25;;;;;;;;;3.00;1.00;;;;;12.12;72.56;102987.91;5072937;28;47619;-78
2022/01/29 11:24:58;;;;;;;;;1.67;1.67;;;;;12.09;72.73;102982.47;5040829;28;45622;-79
2022/01/29 11:27:28;;;;;;;;;1.00;1.00;;;;;12.04;72.50;102977.91;5053157;28;45290;-80
2022/01/29 11:29:58;;;;;;;;;2.00;2.00;;;;;12.11;72.61;102980.81;5058514;28;45397;-78
2022/01/29 11:32:24;;;;;;;;;0.67;0.67;;;;;12.10;72.52;102984.31;5054901;28;47603;-80
2022/01/29 11:35:03;;;;;;;;;4.67;2.00;;;;;12.09;72.86;102972.81;5074823;28;45526;-78
2022/01/29 11:37:57;;;;;;;;;1.00;1.00;;;;;12.12;72.90;102987.91;5073761;28;45597;-78
2022/01/29 11:40:25;;;;;;;;;2.00;2.00;;;;;12.14;72.66;102976.50;5073581;28;45524;-78
2022/01/29 11:42:56;;;;;;;;;4.00;2.00;;;;;12.17;72.81;102976.66;5075784;28;46001;-80
2022/01/29 11:45:33;;;;;;;;;0.00;0.00;;;;;12.17;72.69;102970.44;5073194;28;45316;-78
2022/01/29 11:47:58;;;;;;;;;1.00;1.00;;;;;12.13;72.87;102963.22;5074952;28;45241;-78